sensor_id;sensor_type;location;lat;lon;timestamp;P1;durP1;ratioP1;P2;durP2;ratioP2
27802;SDS011;15182;48.174;11.562;2023-02-24T00:01:55;7.20;;;6.50;;
27802;SDS011;15182;48.174;11.562;2023-02-24T00:04:32;6.90;;;6.30;;
27802;SDS011;15182;48.174;11.562;2023-02-24T00:07:05;9.60;;;6.97;;
27802;SDS011;15182;48.174;11.562;2023-02-24T00:09:38;7.80;;;6.50;;
27802;SDS011;15182;48.174;11.562;2023-02-24T00:12:13;9.67;;;7.30;;
27802;SDS011;15182;48.174;11.562;2023-02-24T00:14:45;10.70;;;6.80;;
27802;SDS011;15182;48.174;11.562;2023-02-24T00:17:16;7.23;;;6.73;;
27802;SDS011;15182;48.174;11.562;2023-02-24T00:19:54;8.93;;;7.20;;
27802;SDS011;15182;48.174;11.562;2023-02-24T00:22:27;8.13;;;7.20;;
27802;SDS011;15182;48.174;11.562;2023-02-24T00:24:58;7.73;;;6.70;;
27802;SDS011;15182;48.174;11.562;2023-02-24T00:27:31;7.50;;;6.80;;
27802;SDS011;15182;48.174;11.562;2023-02-24T00:30:02;6.87;;;6.20;;
27802;SDS011;15182;48.174;11.562;2023-02-24T00:32:37;7.80;;;7.10;;
27802;SDS011;15182;48.174;11.562;2023-02-24T00:35:09;7.00;;;6.30;;
27802;SDS011;15182;48.174;11.562;2023-02-24T00:37:41;7.30;;;6.63;;
27802;SDS011;15182;48.174;11.562;2023-02-24T00:40:16;8.23;;;6.03;;
27802;SDS011;15182;48.174;11.562;2023-02-24T00:42:50;6.27;;;5.80;;
27802;SDS011;15182;48.174;11.562;2023-02-24T00:45:21;5.77;;;5.37;;
27802;SDS011;15182;48.174;11.562;2023-02-24T00:47:55;6.43;;;5.87;;
27802;SDS011;15182;48.174;11.562;2023-02-24T00:50:31;7.17;;;5.23;;
27802;SDS011;15182;48.174;11.562;2023-02-24T00:53:04;6.07;;;5.57;;
27802;SDS011;15182;48.174;11.562;2023-02-24T00:55:37;5.53;;;5.13;;
27802;SDS011;15182;48.174;11.562;2023-02-24T00:58:10;4.97;;;4.57;;
27802;SDS011;15182;48.174;11.562;2023-02-24T01:00:44;5.40;;;5.10;;
27802;SDS011;15182;48.174;11.562;2023-02-24T01:03:15;5.33;;;4.90;;
27802;SDS011;15182;48.174;11.562;2023-02-24T01:05:46;5.10;;;4.80;;
27802;SDS011;15182;48.174;11.562;2023-02-24T01:08:18;5.73;;;5.23;;
27802;SDS011;15182;48.174;11.562;2023-02-24T01:10:56;4.83;;;4.57;;
27802;SDS011;15182;48.174;11.562;2023-02-24T01:13:43;5.63;;;5.20;;
27802;SDS011;15182;48.174;11.562;2023-02-24T01:16:15;6.00;;;5.50;;
27802;SDS011;15182;48.174;11.562;2023-02-24T01:18:47;6.00;;;5.70;;
27802;SDS011;15182;48.174;11.562;2023-02-24T01:21:19;5.60;;;5.10;;
27802;SDS011;15182;48.174;11.562;2023-02-24T01:23:51;5.37;;;4.90;;
27802;SDS011;15182;48.174;11.562;2023-02-24T01:26:22;4.93;;;4.70;;
27802;SDS011;15182;48.174;11.562;2023-02-24T01:28:57;5.20;;;4.77;;
27802;SDS011;15182;48.174;11.562;2023-02-24T01:31:31;4.93;;;4.70;;
27802;SDS011;15182;48.174;11.562;2023-02-24T01:34:03;6.83;;;4.70;;
27802;SDS011;15182;48.174;11.562;2023-02-24T01:36:38;11.53;;;5.00;;
27802;SDS011;15182;48.174;11.562;2023-02-24T01:39:11;5.17;;;4.90;;
27802;SDS011;15182;48.174;11.562;2023-02-24T01:41:45;4.90;;;4.60;;
27802;SDS011;15182;48.174;11.562;2023-02-24T01:47:48;5.40;;;4.93;;
27802;SDS011;15182;48.174;11.562;2023-02-24T01:50:22;5.00;;;4.70;;
27802;SDS011;15182;48.174;11.562;2023-02-24T01:52:58;6.03;;;5.00;;
27802;SDS011;15182;48.174;11.562;2023-02-24T01:55:36;5.00;;;4.70;;
27802;SDS011;15182;48.174;11.562;2023-02-24T01:58:17;5.17;;;4.73;;
27802;SDS011;15182;48.174;11.562;2023-02-24T02:00:50;5.47;;;5.07;;
27802;SDS011;15182;48.174;11.562;2023-02-24T02:03:25;4.90;;;4.70;;
27802;SDS011;15182;48.174;11.562;2023-02-24T02:06:04;5.00;;;4.80;;
27802;SDS011;15182;48.174;11.562;2023-02-24T02:08:40;4.80;;;4.47;;
27802;SDS011;15182;48.174;11.562;2023-02-24T02:11:13;5.23;;;5.03;;
27802;SDS011;15182;48.174;11.562;2023-02-24T02:13:49;5.17;;;4.93;;
27802;SDS011;15182;48.174;11.562;2023-02-24T02:16:28;5.57;;;5.07;;
27802;SDS011;15182;48.174;11.562;2023-02-24T02:19:23;5.30;;;4.63;;
27802;SDS011;15182;48.174;11.562;2023-02-24T02:22:42;4.70;;;4.40;;
27802;SDS011;15182;48.174;11.562;2023-02-24T02:25:41;4.90;;;4.50;;
27802;SDS011;15182;48.174;11.562;2023-02-24T02:28:44;4.50;;;4.30;;
27802;SDS011;15182;48.174;11.562;2023-02-24T02:32:07;5.33;;;4.90;;
27802;SDS011;15182;48.174;11.562;2023-02-24T02:35:18;5.53;;;5.17;;
27802;SDS011;15182;48.174;11.562;2023-02-24T02:37:55;5.13;;;4.80;;
27802;SDS011;15182;48.174;11.562;2023-02-24T02:40:36;4.07;;;3.90;;
27802;SDS011;15182;48.174;11.562;2023-02-24T02:43:14;5.07;;;4.63;;
27802;SDS011;15182;48.174;11.562;2023-02-24T02:45:56;5.73;;;5.33;;
27802;SDS011;15182;48.174;11.562;2023-02-24T02:48:42;5.37;;;5.07;;
27802;SDS011;15182;48.174;11.562;2023-02-24T02:51:23;5.60;;;5.10;;
27802;SDS011;15182;48.174;11.562;2023-02-24T02:54:04;5.60;;;5.20;;
27802;SDS011;15182;48.174;11.562;2023-02-24T02:56:43;5.67;;;5.07;;
27802;SDS011;15182;48.174;11.562;2023-02-24T02:59:22;4.77;;;4.57;;
27802;SDS011;15182;48.174;11.562;2023-02-24T03:01:57;5.60;;;5.30;;
27802;SDS011;15182;48.174;11.562;2023-02-24T03:04:40;5.43;;;5.10;;
27802;SDS011;15182;48.174;11.562;2023-02-24T03:07:19;4.97;;;4.77;;
27802;SDS011;15182;48.174;11.562;2023-02-24T03:09:57;4.90;;;4.70;;
27802;SDS011;15182;48.174;11.562;2023-02-24T03:12:36;4.87;;;4.67;;
27802;SDS011;15182;48.174;11.562;2023-02-24T03:15:10;5.80;;;5.17;;
27802;SDS011;15182;48.174;11.562;2023-02-24T03:17:48;4.83;;;4.63;;
27802;SDS011;15182;48.174;11.562;2023-02-24T03:20:29;4.97;;;4.67;;
27802;SDS011;15182;48.174;11.562;2023-02-24T03:23:08;5.70;;;5.23;;
27802;SDS011;15182;48.174;11.562;2023-02-24T03:25:49;5.30;;;4.90;;
27802;SDS011;15182;48.174;11.562;2023-02-24T03:28:29;5.30;;;5.00;;
27802;SDS011;15182;48.174;11.562;2023-02-24T03:31:09;5.00;;;4.80;;
27802;SDS011;15182;48.174;11.562;2023-02-24T03:33:53;4.70;;;4.60;;
27802;SDS011;15182;48.174;11.562;2023-02-24T03:36:31;5.10;;;4.80;;
27802;SDS011;15182;48.174;11.562;2023-02-24T03:39:05;5.30;;;4.77;;
27802;SDS011;15182;48.174;11.562;2023-02-24T03:41:48;5.50;;;5.20;;
27802;SDS011;15182;48.174;11.562;2023-02-24T03:44:29;5.23;;;4.90;;
27802;SDS011;15182;48.174;11.562;2023-02-24T03:47:01;5.20;;;4.90;;
27802;SDS011;15182;48.174;11.562;2023-02-24T03:49:34;5.57;;;5.17;;
27802;SDS011;15182;48.174;11.562;2023-02-24T03:52:11;5.73;;;5.30;;
27802;SDS011;15182;48.174;11.562;2023-02-24T03:55:02;4.73;;;4.53;;
27802;SDS011;15182;48.174;11.562;2023-02-24T03:57:51;5.43;;;5.03;;
27802;SDS011;15182;48.174;11.562;2023-02-24T04:00:38;5.03;;;4.83;;
27802;SDS011;15182;48.174;11.562;2023-02-24T04:03:19;6.33;;;5.03;;
27802;SDS011;15182;48.174;11.562;2023-02-24T04:06:06;5.93;;;5.33;;
27802;SDS011;15182;48.174;11.562;2023-02-24T04:08:44;4.60;;;4.40;;
27802;SDS011;15182;48.174;11.562;2023-02-24T04:11:23;4.87;;;4.40;;
27802;SDS011;15182;48.174;11.562;2023-02-24T04:14:02;5.33;;;5.03;;
27802;SDS011;15182;48.174;11.562;2023-02-24T04:16:40;4.80;;;4.60;;
27802;SDS011;15182;48.174;11.562;2023-02-24T04:19:25;7.50;;;4.33;;
27802;SDS011;15182;48.174;11.562;2023-02-24T04:22:05;5.20;;;4.70;;
27802;SDS011;15182;48.174;11.562;2023-02-24T04:24:41;7.57;;;5.50;;
27802;SDS011;15182;48.174;11.562;2023-02-24T04:27:21;4.63;;;4.37;;
27802;SDS011;15182;48.174;11.562;2023-02-24T04:30:04;4.63;;;4.43;;
27802;SDS011;15182;48.174;11.562;2023-02-24T04:32:39;5.57;;;5.17;;
27802;SDS011;15182;48.174;11.562;2023-02-24T04:35:11;5.53;;;4.77;;
27802;SDS011;15182;48.174;11.562;2023-02-24T04:37:49;5.40;;;5.10;;
27802;SDS011;15182;48.174;11.562;2023-02-24T04:40:21;4.50;;;4.10;;
27802;SDS011;15182;48.174;11.562;2023-02-24T04:42:55;4.80;;;4.50;;
27802;SDS011;15182;48.174;11.562;2023-02-24T04:45:29;5.87;;;5.03;;
27802;SDS011;15182;48.174;11.562;2023-02-24T04:48:06;4.80;;;4.63;;
27802;SDS011;15182;48.174;11.562;2023-02-24T04:50:40;5.20;;;4.70;;
27802;SDS011;15182;48.174;11.562;2023-02-24T04:53:19;5.33;;;4.90;;
27802;SDS011;15182;48.174;11.562;2023-02-24T04:55:52;4.80;;;4.40;;
27802;SDS011;15182;48.174;11.562;2023-02-24T04:58:25;5.47;;;4.47;;
27802;SDS011;15182;48.174;11.562;2023-02-24T05:00:58;4.90;;;4.60;;
27802;SDS011;15182;48.174;11.562;2023-02-24T05:03:36;4.43;;;4.27;;
27802;SDS011;15182;48.174;11.562;2023-02-24T05:06:12;5.30;;;4.77;;
27802;SDS011;15182;48.174;11.562;2023-02-24T05:08:44;8.37;;;5.00;;
27802;SDS011;15182;48.174;11.562;2023-02-24T05:11:17;4.97;;;4.20;;
27802;SDS011;15182;48.174;11.562;2023-02-24T05:13:50;5.50;;;4.13;;
27802;SDS011;15182;48.174;11.562;2023-02-24T05:16:21;5.73;;;4.80;;
27802;SDS011;15182;48.174;11.562;2023-02-24T05:18:53;4.27;;;4.07;;
27802;SDS011;15182;48.174;11.562;2023-02-24T05:21:39;4.27;;;3.93;;
27802;SDS011;15182;48.174;11.562;2023-02-24T05:24:13;7.77;;;4.10;;
27802;SDS011;15182;48.174;11.562;2023-02-24T05:26:44;4.77;;;4.37;;
27802;SDS011;15182;48.174;11.562;2023-02-24T05:29:24;5.37;;;4.47;;
27802;SDS011;15182;48.174;11.562;2023-02-24T05:31:57;5.20;;;4.80;;
27802;SDS011;15182;48.174;11.562;2023-02-24T05:34:30;5.00;;;4.70;;
27802;SDS011;15182;48.174;11.562;2023-02-24T05:37:05;4.20;;;4.10;;
27802;SDS011;15182;48.174;11.562;2023-02-24T05:39:36;5.17;;;4.77;;
27802;SDS011;15182;48.174;11.562;2023-02-24T05:42:10;4.80;;;4.30;;
27802;SDS011;15182;48.174;11.562;2023-02-24T05:44:43;4.53;;;4.13;;
27802;SDS011;15182;48.174;11.562;2023-02-24T05:47:16;4.80;;;4.50;;
27802;SDS011;15182;48.174;11.562;2023-02-24T05:49:48;4.23;;;4.10;;
27802;SDS011;15182;48.174;11.562;2023-02-24T05:52:21;4.73;;;4.43;;
27802;SDS011;15182;48.174;11.562;2023-02-24T05:54:53;5.37;;;5.03;;
27802;SDS011;15182;48.174;11.562;2023-02-24T05:57:25;4.67;;;4.30;;
27802;SDS011;15182;48.174;11.562;2023-02-24T06:00:02;5.17;;;4.90;;
27802;SDS011;15182;48.174;11.562;2023-02-24T06:02:41;4.87;;;4.57;;
27802;SDS011;15182;48.174;11.562;2023-02-24T06:05:18;5.27;;;4.77;;
27802;SDS011;15182;48.174;11.562;2023-02-24T06:07:55;4.90;;;4.60;;
27802;SDS011;15182;48.174;11.562;2023-02-24T06:10:31;5.27;;;4.50;;
27802;SDS011;15182;48.174;11.562;2023-02-24T06:13:02;5.47;;;5.07;;
27802;SDS011;15182;48.174;11.562;2023-02-24T06:15:36;5.37;;;4.97;;
27802;SDS011;15182;48.174;11.562;2023-02-24T06:18:16;5.83;;;4.90;;
27802;SDS011;15182;48.174;11.562;2023-02-24T06:20:48;5.60;;;4.83;;
27802;SDS011;15182;48.174;11.562;2023-02-24T06:23:20;5.53;;;5.20;;
27802;SDS011;15182;48.174;11.562;2023-02-24T06:25:51;5.57;;;5.10;;
27802;SDS011;15182;48.174;11.562;2023-02-24T06:28:23;4.90;;;4.57;;
27802;SDS011;15182;48.174;11.562;2023-02-24T06:30:55;5.43;;;4.93;;
27802;SDS011;15182;48.174;11.562;2023-02-24T06:33:31;5.20;;;4.90;;
27802;SDS011;15182;48.174;11.562;2023-02-24T06:36:04;4.60;;;4.40;;
27802;SDS011;15182;48.174;11.562;2023-02-24T06:38:36;5.13;;;4.93;;
27802;SDS011;15182;48.174;11.562;2023-02-24T06:41:07;5.20;;;4.83;;
27802;SDS011;15182;48.174;11.562;2023-02-24T06:43:39;5.10;;;4.60;;
27802;SDS011;15182;48.174;11.562;2023-02-24T06:46:14;5.77;;;4.97;;
27802;SDS011;15182;48.174;11.562;2023-02-24T06:48:46;5.50;;;5.20;;
27802;SDS011;15182;48.174;11.562;2023-02-24T06:51:18;7.00;;;5.00;;
27802;SDS011;15182;48.174;11.562;2023-02-24T06:53:49;5.83;;;5.40;;
27802;SDS011;15182;48.174;11.562;2023-02-24T06:56:21;5.50;;;4.87;;
27802;SDS011;15182;48.174;11.562;2023-02-24T06:58:55;4.83;;;4.53;;
27802;SDS011;15182;48.174;11.562;2023-02-24T07:01:28;5.50;;;5.10;;
27802;SDS011;15182;48.174;11.562;2023-02-24T07:03:59;5.43;;;5.13;;
27802;SDS011;15182;48.174;11.562;2023-02-24T07:06:44;5.37;;;4.97;;
27802;SDS011;15182;48.174;11.562;2023-02-24T07:09:17;5.23;;;4.93;;
27802;SDS011;15182;48.174;11.562;2023-02-24T07:11:52;5.37;;;5.00;;
27802;SDS011;15182;48.174;11.562;2023-02-24T07:14:27;8.30;;;5.20;;
27802;SDS011;15182;48.174;11.562;2023-02-24T07:17:03;5.47;;;5.20;;
27802;SDS011;15182;48.174;11.562;2023-02-24T07:19:35;6.03;;;5.57;;
27802;SDS011;15182;48.174;11.562;2023-02-24T07:22:06;7.03;;;5.03;;
27802;SDS011;15182;48.174;11.562;2023-02-24T07:24:39;5.87;;;5.33;;
27802;SDS011;15182;48.174;11.562;2023-02-24T07:27:11;5.30;;;4.87;;
27802;SDS011;15182;48.174;11.562;2023-02-24T07:29:47;7.67;;;4.93;;
27802;SDS011;15182;48.174;11.562;2023-02-24T07:32:21;6.23;;;5.73;;
27802;SDS011;15182;48.174;11.562;2023-02-24T07:34:52;5.47;;;5.03;;
27802;SDS011;15182;48.174;11.562;2023-02-24T07:37:24;5.67;;;5.17;;
27802;SDS011;15182;48.174;11.562;2023-02-24T07:39:56;7.43;;;5.50;;
27802;SDS011;15182;48.174;11.562;2023-02-24T07:42:29;6.57;;;5.30;;
27802;SDS011;15182;48.174;11.562;2023-02-24T07:45:05;7.03;;;5.20;;
27802;SDS011;15182;48.174;11.562;2023-02-24T07:47:39;6.23;;;5.67;;
27802;SDS011;15182;48.174;11.562;2023-02-24T07:50:11;5.20;;;4.90;;
27802;SDS011;15182;48.174;11.562;2023-02-24T07:52:43;7.07;;;5.30;;
27802;SDS011;15182;48.174;11.562;2023-02-24T07:55:16;6.13;;;5.73;;
27802;SDS011;15182;48.174;11.562;2023-02-24T07:57:50;7.33;;;6.00;;
27802;SDS011;15182;48.174;11.562;2023-02-24T08:00:22;6.57;;;6.03;;
27802;SDS011;15182;48.174;11.562;2023-02-24T08:02:56;10.17;;;6.50;;
27802;SDS011;15182;48.174;11.562;2023-02-24T08:05:27;8.20;;;6.27;;
27802;SDS011;15182;48.174;11.562;2023-02-24T08:07:59;6.67;;;6.17;;
27802;SDS011;15182;48.174;11.562;2023-02-24T08:10:31;9.67;;;6.43;;
27802;SDS011;15182;48.174;11.562;2023-02-24T08:13:05;7.43;;;6.23;;
27802;SDS011;15182;48.174;11.562;2023-02-24T08:15:39;7.30;;;6.53;;
27802;SDS011;15182;48.174;11.562;2023-02-24T08:18:22;6.90;;;6.27;;
27802;SDS011;15182;48.174;11.562;2023-02-24T08:20:54;11.73;;;6.33;;
27802;SDS011;15182;48.174;11.562;2023-02-24T08:23:29;8.80;;;6.70;;
27802;SDS011;15182;48.174;11.562;2023-02-24T08:26:09;11.73;;;6.63;;
27802;SDS011;15182;48.174;11.562;2023-02-24T08:28:40;8.80;;;6.57;;
27802;SDS011;15182;48.174;11.562;2023-02-24T08:31:12;11.37;;;7.17;;
27802;SDS011;15182;48.174;11.562;2023-02-24T08:33:45;16.13;;;7.70;;
27802;SDS011;15182;48.174;11.562;2023-02-24T08:36:21;9.60;;;7.33;;
27802;SDS011;15182;48.174;11.562;2023-02-24T08:38:52;10.20;;;7.73;;
27802;SDS011;15182;48.174;11.562;2023-02-24T08:41:24;9.90;;;7.63;;
27802;SDS011;15182;48.174;11.562;2023-02-24T08:44:10;8.63;;;7.57;;
27802;SDS011;15182;48.174;11.562;2023-02-24T08:46:43;7.57;;;6.93;;
27802;SDS011;15182;48.174;11.562;2023-02-24T08:49:17;13.20;;;7.60;;
27802;SDS011;15182;48.174;11.562;2023-02-24T08:51:51;9.37;;;7.03;;
27802;SDS011;15182;48.174;11.562;2023-02-24T08:54:27;8.37;;;7.20;;
27802;SDS011;15182;48.174;11.562;2023-02-24T08:56:58;10.27;;;6.60;;
27802;SDS011;15182;48.174;11.562;2023-02-24T08:59:34;12.20;;;7.60;;
27802;SDS011;15182;48.174;11.562;2023-02-24T09:02:15;10.47;;;6.53;;
27802;SDS011;15182;48.174;11.562;2023-02-24T09:04:53;14.03;;;7.27;;
27802;SDS011;15182;48.174;11.562;2023-02-24T09:07:29;11.53;;;7.53;;
27802;SDS011;15182;48.174;11.562;2023-02-24T09:10:06;11.63;;;7.60;;
27802;SDS011;15182;48.174;11.562;2023-02-24T09:12:42;10.43;;;6.87;;
27802;SDS011;15182;48.174;11.562;2023-02-24T09:15:18;9.50;;;7.07;;
27802;SDS011;15182;48.174;11.562;2023-02-24T09:17:50;13.50;;;7.33;;
27802;SDS011;15182;48.174;11.562;2023-02-24T09:20:33;13.17;;;7.90;;
27802;SDS011;15182;48.174;11.562;2023-02-24T09:23:21;10.43;;;7.07;;
27802;SDS011;15182;48.174;11.562;2023-02-24T09:25:55;9.77;;;7.50;;
27802;SDS011;15182;48.174;11.562;2023-02-24T09:28:35;10.87;;;7.50;;
27802;SDS011;15182;48.174;11.562;2023-02-24T09:31:14;10.73;;;7.10;;
27802;SDS011;15182;48.174;11.562;2023-02-24T09:33:48;9.43;;;7.50;;
27802;SDS011;15182;48.174;11.562;2023-02-24T09:36:27;12.43;;;7.97;;
27802;SDS011;15182;48.174;11.562;2023-02-24T09:39:10;14.07;;;7.90;;
27802;SDS011;15182;48.174;11.562;2023-02-24T09:41:42;13.73;;;8.67;;
27802;SDS011;15182;48.174;11.562;2023-02-24T09:44:50;10.00;;;8.10;;
27802;SDS011;15182;48.174;11.562;2023-02-24T09:47:27;12.80;;;8.40;;
27802;SDS011;15182;48.174;11.562;2023-02-24T09:50:24;10.30;;;8.47;;
27802;SDS011;15182;48.174;11.562;2023-02-24T09:53:13;13.40;;;9.57;;
27802;SDS011;15182;48.174;11.562;2023-02-24T09:55:47;16.37;;;8.57;;
27802;SDS011;15182;48.174;11.562;2023-02-24T09:58:32;10.00;;;8.17;;
27802;SDS011;15182;48.174;11.562;2023-02-24T10:01:19;13.10;;;8.97;;
27802;SDS011;15182;48.174;11.562;2023-02-24T10:04:12;18.50;;;9.23;;
27802;SDS011;15182;48.174;11.562;2023-02-24T10:06:57;14.53;;;8.83;;
27802;SDS011;15182;48.174;11.562;2023-02-24T10:09:35;13.13;;;9.67;;
27802;SDS011;15182;48.174;11.562;2023-02-24T10:12:12;13.23;;;8.33;;
27802;SDS011;15182;48.174;11.562;2023-02-24T10:14:50;15.57;;;9.33;;
27802;SDS011;15182;48.174;11.562;2023-02-24T10:17:40;14.40;;;8.93;;
27802;SDS011;15182;48.174;11.562;2023-02-24T10:20:16;16.83;;;9.40;;
27802;SDS011;15182;48.174;11.562;2023-02-24T10:22:57;15.27;;;9.13;;
27802;SDS011;15182;48.174;11.562;2023-02-24T10:25:41;14.00;;;9.73;;
27802;SDS011;15182;48.174;11.562;2023-02-24T10:28:22;16.73;;;9.43;;
27802;SDS011;15182;48.174;11.562;2023-02-24T10:31:04;15.80;;;9.27;;
27802;SDS011;15182;48.174;11.562;2023-02-24T10:33:49;16.77;;;9.73;;
27802;SDS011;15182;48.174;11.562;2023-02-24T10:36:25;12.63;;;9.03;;
27802;SDS011;15182;48.174;11.562;2023-02-24T10:39:01;17.63;;;9.80;;
27802;SDS011;15182;48.174;11.562;2023-02-24T10:41:43;14.83;;;8.50;;
27802;SDS011;15182;48.174;11.562;2023-02-24T10:44:22;17.73;;;9.63;;
27802;SDS011;15182;48.174;11.562;2023-02-24T10:47:01;18.17;;;9.77;;
27802;SDS011;15182;48.174;11.562;2023-02-24T10:49:38;15.07;;;8.77;;
27802;SDS011;15182;48.174;11.562;2023-02-24T10:52:22;12.70;;;7.87;;
27802;SDS011;15182;48.174;11.562;2023-02-24T10:55:19;15.13;;;8.20;;
27802;SDS011;15182;48.174;11.562;2023-02-24T10:58:19;11.90;;;8.00;;
27802;SDS011;15182;48.174;11.562;2023-02-24T11:01:11;12.23;;;7.97;;
27802;SDS011;15182;48.174;11.562;2023-02-24T11:03:50;13.07;;;8.33;;
27802;SDS011;15182;48.174;11.562;2023-02-24T11:06:27;15.17;;;8.40;;
27802;SDS011;15182;48.174;11.562;2023-02-24T11:09:21;12.87;;;7.73;;
27802;SDS011;15182;48.174;11.562;2023-02-24T11:12:11;12.53;;;7.97;;
27802;SDS011;15182;48.174;11.562;2023-02-24T11:15:05;11.33;;;7.90;;
27802;SDS011;15182;48.174;11.562;2023-02-24T11:18:17;15.63;;;8.10;;
27802;SDS011;15182;48.174;11.562;2023-02-24T11:20:52;11.90;;;8.07;;
27802;SDS011;15182;48.174;11.562;2023-02-24T11:23:28;12.20;;;8.13;;
27802;SDS011;15182;48.174;11.562;2023-02-24T11:26:06;13.70;;;8.33;;
27802;SDS011;15182;48.174;11.562;2023-02-24T11:28:47;7.90;;;6.90;;
27802;SDS011;15182;48.174;11.562;2023-02-24T11:31:33;12.00;;;8.27;;
27802;SDS011;15182;48.174;11.562;2023-02-24T11:34:32;12.13;;;8.23;;
27802;SDS011;15182;48.174;11.562;2023-02-24T11:37:18;10.30;;;8.17;;
27802;SDS011;15182;48.174;11.562;2023-02-24T11:39:59;13.13;;;7.70;;
27802;SDS011;15182;48.174;11.562;2023-02-24T11:42:35;12.93;;;8.07;;
27802;SDS011;15182;48.174;11.562;2023-02-24T11:45:14;15.43;;;7.70;;
27802;SDS011;15182;48.174;11.562;2023-02-24T11:47:56;9.83;;;7.77;;
27802;SDS011;15182;48.174;11.562;2023-02-24T11:50:40;11.23;;;7.57;;
27802;SDS011;15182;48.174;11.562;2023-02-24T11:53:23;12.87;;;8.10;;
27802;SDS011;15182;48.174;11.562;2023-02-24T11:55:58;9.97;;;7.73;;
27802;SDS011;15182;48.174;11.562;2023-02-24T11:58:33;15.67;;;8.83;;
27802;SDS011;15182;48.174;11.562;2023-02-24T12:01:09;11.50;;;7.80;;
27802;SDS011;15182;48.174;11.562;2023-02-24T12:03:51;14.67;;;9.30;;
27802;SDS011;15182;48.174;11.562;2023-02-24T12:06:30;11.83;;;8.77;;
27802;SDS011;15182;48.174;11.562;2023-02-24T12:09:09;11.37;;;8.30;;
27802;SDS011;15182;48.174;11.562;2023-02-24T12:11:47;11.87;;;9.50;;
27802;SDS011;15182;48.174;11.562;2023-02-24T12:14:25;11.93;;;8.90;;
27802;SDS011;15182;48.174;11.562;2023-02-24T12:17:03;13.60;;;8.30;;
27802;SDS011;15182;48.174;11.562;2023-02-24T12:19:49;11.17;;;8.93;;
27802;SDS011;15182;48.174;11.562;2023-02-24T12:22:25;12.27;;;9.00;;
27802;SDS011;15182;48.174;11.562;2023-02-24T12:25:09;12.73;;;9.23;;
27802;SDS011;15182;48.174;11.562;2023-02-24T12:27:46;14.50;;;8.27;;
27802;SDS011;15182;48.174;11.562;2023-02-24T12:30:49;10.13;;;8.33;;
27802;SDS011;15182;48.174;11.562;2023-02-24T12:33:39;11.70;;;8.97;;
27802;SDS011;15182;48.174;11.562;2023-02-24T12:36:22;15.43;;;8.60;;
27802;SDS011;15182;48.174;11.562;2023-02-24T12:39:10;14.80;;;8.67;;
27802;SDS011;15182;48.174;11.562;2023-02-24T12:41:47;14.83;;;8.63;;
27802;SDS011;15182;48.174;11.562;2023-02-24T12:44:29;18.10;;;9.60;;
27802;SDS011;15182;48.174;11.562;2023-02-24T12:47:04;15.07;;;9.83;;
27802;SDS011;15182;48.174;11.562;2023-02-24T12:49:52;10.53;;;8.40;;
27802;SDS011;15182;48.174;11.562;2023-02-24T12:52:37;11.30;;;8.10;;
27802;SDS011;15182;48.174;11.562;2023-02-24T12:55:21;13.17;;;7.83;;
27802;SDS011;15182;48.174;11.562;2023-02-24T12:57:58;12.43;;;7.97;;
27802;SDS011;15182;48.174;11.562;2023-02-24T13:00:36;10.93;;;7.47;;
27802;SDS011;15182;48.174;11.562;2023-02-24T13:03:21;10.00;;;7.43;;
27802;SDS011;15182;48.174;11.562;2023-02-24T13:06:03;13.40;;;8.10;;
27802;SDS011;15182;48.174;11.562;2023-02-24T13:08:49;15.07;;;8.90;;
27802;SDS011;15182;48.174;11.562;2023-02-24T13:11:26;14.90;;;7.90;;
27802;SDS011;15182;48.174;11.562;2023-02-24T13:14:05;11.60;;;8.30;;
27802;SDS011;15182;48.174;11.562;2023-02-24T13:16:46;15.90;;;8.47;;
27802;SDS011;15182;48.174;11.562;2023-02-24T13:19:19;11.77;;;7.60;;
27802;SDS011;15182;48.174;11.562;2023-02-24T13:22:00;11.37;;;7.53;;
27802;SDS011;15182;48.174;11.562;2023-02-24T13:24:36;13.10;;;8.53;;
27802;SDS011;15182;48.174;11.562;2023-02-24T13:27:18;15.83;;;8.70;;
27802;SDS011;15182;48.174;11.562;2023-02-24T13:29:54;13.17;;;7.70;;
27802;SDS011;15182;48.174;11.562;2023-02-24T13:32:29;13.67;;;8.20;;
27802;SDS011;15182;48.174;11.562;2023-02-24T13:35:05;10.13;;;8.20;;
27802;SDS011;15182;48.174;11.562;2023-02-24T13:38:06;13.23;;;9.17;;
27802;SDS011;15182;48.174;11.562;2023-02-24T13:40:52;14.37;;;9.03;;
27802;SDS011;15182;48.174;11.562;2023-02-24T13:43:32;15.40;;;9.87;;
27802;SDS011;15182;48.174;11.562;2023-02-24T13:46:13;13.37;;;9.13;;
27802;SDS011;15182;48.174;11.562;2023-02-24T13:48:49;9.87;;;7.73;;
27802;SDS011;15182;48.174;11.562;2023-02-24T13:54:37;10.90;;;8.07;;
27802;SDS011;15182;48.174;11.562;2023-02-24T13:57:50;8.53;;;7.63;;
27802;SDS011;15182;48.174;11.562;2023-02-24T14:00:40;12.60;;;9.20;;
27802;SDS011;15182;48.174;11.562;2023-02-24T14:03:24;17.20;;;8.47;;
27802;SDS011;15182;48.174;11.562;2023-02-24T14:05:57;14.80;;;8.83;;
27802;SDS011;15182;48.174;11.562;2023-02-24T14:08:34;13.00;;;9.17;;
27802;SDS011;15182;48.174;11.562;2023-02-24T14:11:10;12.00;;;9.17;;
27802;SDS011;15182;48.174;11.562;2023-02-24T14:13:48;17.97;;;10.47;;
27802;SDS011;15182;48.174;11.562;2023-02-24T14:16:23;18.13;;;9.67;;
27802;SDS011;15182;48.174;11.562;2023-02-24T14:18:59;14.07;;;9.50;;
27802;SDS011;15182;48.174;11.562;2023-02-24T14:21:34;23.37;;;10.07;;
27802;SDS011;15182;48.174;11.562;2023-02-24T14:24:12;18.17;;;10.40;;
27802;SDS011;15182;48.174;11.562;2023-02-24T14:26:44;14.87;;;10.03;;
27802;SDS011;15182;48.174;11.562;2023-02-24T14:29:20;19.83;;;10.77;;
27802;SDS011;15182;48.174;11.562;2023-02-24T14:31:56;18.23;;;9.90;;
27802;SDS011;15182;48.174;11.562;2023-02-24T14:34:29;18.03;;;10.40;;
27802;SDS011;15182;48.174;11.562;2023-02-24T14:37:01;20.43;;;10.07;;
27802;SDS011;15182;48.174;11.562;2023-02-24T14:39:41;13.67;;;9.17;;
27802;SDS011;15182;48.174;11.562;2023-02-24T14:42:19;14.93;;;9.40;;
27802;SDS011;15182;48.174;11.562;2023-02-24T14:44:52;10.93;;;8.70;;
27802;SDS011;15182;48.174;11.562;2023-02-24T14:47:26;10.97;;;8.67;;
27802;SDS011;15182;48.174;11.562;2023-02-24T14:49:58;17.43;;;9.10;;
27802;SDS011;15182;48.174;11.562;2023-02-24T14:52:33;12.03;;;8.63;;
27802;SDS011;15182;48.174;11.562;2023-02-24T14:55:09;10.20;;;8.57;;
27802;SDS011;15182;48.174;11.562;2023-02-24T14:57:47;14.73;;;8.63;;
27802;SDS011;15182;48.174;11.562;2023-02-24T15:00:23;15.07;;;9.03;;
27802;SDS011;15182;48.174;11.562;2023-02-24T15:03:00;11.33;;;8.17;;
27802;SDS011;15182;48.174;11.562;2023-02-24T15:05:38;12.77;;;8.97;;
27802;SDS011;15182;48.174;11.562;2023-02-24T15:08:15;16.80;;;9.77;;
27802;SDS011;15182;48.174;11.562;2023-02-24T15:10:55;18.57;;;8.73;;
27802;SDS011;15182;48.174;11.562;2023-02-24T15:13:28;13.03;;;7.97;;
27802;SDS011;15182;48.174;11.562;2023-02-24T15:16:08;13.50;;;8.23;;
27802;SDS011;15182;48.174;11.562;2023-02-24T15:18:43;11.93;;;7.33;;
27802;SDS011;15182;48.174;11.562;2023-02-24T15:21:22;14.43;;;8.27;;
27802;SDS011;15182;48.174;11.562;2023-02-24T15:23:59;10.37;;;7.80;;
27802;SDS011;15182;48.174;11.562;2023-02-24T15:26:39;15.57;;;8.57;;
27802;SDS011;15182;48.174;11.562;2023-02-24T15:29:18;17.23;;;8.37;;
27802;SDS011;15182;48.174;11.562;2023-02-24T15:31:53;10.13;;;7.60;;
27802;SDS011;15182;48.174;11.562;2023-02-24T15:34:27;13.13;;;8.00;;
27802;SDS011;15182;48.174;11.562;2023-02-24T15:37:11;12.57;;;7.10;;
27802;SDS011;15182;48.174;11.562;2023-02-24T15:39:47;14.97;;;7.80;;